Time;durP1;ratioP1;P1;durP2;ratioP2;P2;SDS_P1;SDS_P2;PMS_P1;PMS_P2;Temp;Humidity;BMP_temperature;BMP_pressure;BME280_temperature;BME280_humidity;BME280_pressure;Samples;Min_cycle;Max_cycle;Signal;HPM_P1;HPM_P2
2021/09/29 00:01:39;;;;;;;5.20;3.00;;;12.60;99.90;;;;;;4967351;28;20220;-92
2021/09/29 00:04:05;;;;;;;4.50;2.83;;;12.60;99.90;;;;;;4969359;28;20187;-92
2021/09/29 00:06:31;;;;;;;3.63;3.13;;;12.70;99.90;;;;;;4981809;28;20223;-91
2021/09/29 00:08:57;;;;;;;5.20;3.67;;;12.70;99.90;;;;;;4963450;28;20220;-91
2021/09/29 00:11:22;;;;;;;5.00;3.43;;;12.70;99.90;;;;;;4950666;28;20211;-91
2021/09/29 00:13:48;;;;;;;6.73;3.23;;;12.70;99.90;;;;;;4953306;28;20936;-91
2021/09/29 00:16:14;;;;;;;2.70;2.37;;;12.80;99.90;;;;;;4950893;28;20653;-91
2021/09/29 00:18:41;;;;;;;3.33;3.03;;;12.80;99.90;;;;;;4967874;28;20196;-92
2021/09/29 00:21:08;;;;;;;10.00;2.23;;;12.80;99.90;;;;;;4965848;28;20219;-93
2021/09/29 00:23:34;;;;;;;11.13;4.83;;;12.70;99.90;;;;;;4951046;28;20216;-92
2021/09/29 00:26:00;;;;;;;15.03;4.37;;;12.70;99.90;;;;;;4984810;28;20223;-93
2021/09/29 00:28:25;;;;;;;3.70;2.83;;;12.70;99.90;;;;;;5000936;28;20192;-92
2021/09/29 00:31:01;;;;;;;4.57;2.97;;;12.60;99.90;;;;;;4982298;28;20239;-90
2021/09/29 00:33:28;;;;;;;5.37;3.33;;;12.60;99.90;;;;;;4984189;28;20223;-90
2021/09/29 00:35:54;;;;;;;4.53;3.57;;;12.60;99.90;;;;;;4999902;28;20230;-91
2021/09/29 00:38:19;;;;;;;4.33;3.07;;;12.60;99.90;;;;;;4950286;28;20235;-92
2021/09/29 00:40:45;;;;;;;15.70;3.63;;;12.50;99.90;;;;;;4980067;28;20585;-93
2021/09/29 00:43:13;;;;;;;7.93;3.70;;;12.50;99.90;;;;;;4967399;28;20250;-91
2021/09/29 00:45:39;;;;;;;4.40;2.83;;;12.50;99.90;;;;;;4965152;28;21403;-90
2021/09/29 00:48:05;;;;;;;5.77;3.27;;;12.50;99.90;;;;;;4965684;28;20323;-93
2021/09/29 00:50:31;;;;;;;3.17;2.87;;;12.50;99.90;;;;;;4980155;28;20225;-92
2021/09/29 00:52:58;;;;;;;8.73;3.70;;;12.50;99.90;;;;;;4974186;28;20292;-93
2021/09/29 00:55:24;;;;;;;6.57;5.00;;;12.50;99.90;;;;;;4989688;28;20299;-92
2021/09/29 00:57:50;;;;;;;8.07;3.63;;;12.50;99.90;;;;;;4967524;28;20293;-92
2021/09/29 01:00:16;;;;;;;6.10;3.80;;;12.50;99.90;;;;;;4963347;28;20310;-91
2021/09/29 01:02:42;;;;;;;6.13;4.23;;;12.50;99.90;;;;;;4975932;28;20211;-93
2021/09/29 01:05:11;;;;;;;6.43;4.10;;;12.50;99.90;;;;;;4965623;28;20227;-92
2021/09/29 01:07:43;;;;;;;5.60;3.60;;;12.50;99.90;;;;;;4949580;28;20230;-92
2021/09/29 01:10:29;;;;;;;4.63;3.43;;;12.50;99.90;;;;;;4982216;28;20241;-92
2021/09/29 01:13:07;;;;;;;4.70;3.20;;;12.50;99.90;;;;;;4982875;28;20191;-91
2021/09/29 01:15:48;;;;;;;5.47;3.90;;;12.50;99.90;;;;;;4970174;28;20243;-92
2021/09/29 01:18:15;;;;;;;6.13;3.50;;;12.50;99.90;;;;;;4976713;28;20235;-94
2021/09/29 01:20:48;;;;;;;7.00;3.60;;;12.40;99.90;;;;;;4998510;28;20215;-92
2021/09/29 01:23:29;;;;;;;3.77;2.93;;;12.40;99.90;;;;;;4979981;28;20211;-91
2021/09/29 01:25:57;;;;;;;5.60;4.17;;;12.40;99.90;;;;;;4979519;28;20228;-92
2021/09/29 01:28:40;;;;;;;9.53;4.67;;;12.40;99.90;;;;;;4971894;28;20193;-91
2021/09/29 01:31:08;;;;;;;5.67;4.10;;;12.50;99.90;;;;;;4981514;28;20330;-91
2021/09/29 01:33:35;;;;;;;4.73;4.00;;;12.40;99.90;;;;;;4984017;28;20203;-93
2021/09/29 01:36:02;;;;;;;5.90;3.63;;;12.30;99.90;;;;;;4982952;28;20319;-92
2021/09/29 01:38:29;;;;;;;4.00;3.57;;;12.30;99.90;;;;;;4964914;28;20232;-92
2021/09/29 01:40:55;;;;;;;7.03;4.57;;;12.20;99.90;;;;;;4963817;28;20558;-93
2021/09/29 01:43:21;;;;;;;6.90;4.33;;;12.20;99.90;;;;;;4981624;28;20675;-91
2021/09/29 01:45:47;;;;;;;7.07;3.70;;;12.20;99.90;;;;;;4964577;28;20192;-92
2021/09/29 01:48:16;;;;;;;6.27;4.70;;;12.20;99.90;;;;;;4964166;28;20222;-92
2021/09/29 01:50:47;;;;;;;6.53;3.77;;;12.20;99.90;;;;;;4972302;28;20886;-92
2021/09/29 01:53:16;;;;;;;3.30;2.90;;;12.10;99.90;;;;;;4978178;28;20988;-93
2021/09/29 01:55:45;;;;;;;5.10;4.00;;;12.10;99.90;;;;;;4988702;28;20220;-90
2021/09/29 01:58:12;;;;;;;5.23;2.97;;;12.10;99.90;;;;;;4979175;28;20296;-91
2021/09/29 02:00:40;;;;;;;6.53;3.73;;;12.10;99.90;;;;;;4997643;28;20183;-91
2021/09/29 02:03:06;;;;;;;6.03;5.10;;;12.10;99.90;;;;;;4995079;28;20270;-91
2021/09/29 02:05:34;;;;;;;5.13;3.83;;;12.10;99.90;;;;;;4946296;28;20688;-91
2021/09/29 02:08:04;;;;;;;7.27;5.83;;;12.10;99.90;;;;;;4962095;28;20223;-91
2021/09/29 02:10:30;;;;;;;6.77;3.47;;;12.10;99.90;;;;;;4962960;28;20323;-91
2021/09/29 02:12:56;;;;;;;4.20;3.57;;;12.00;99.90;;;;;;4980963;28;20278;-93
2021/09/29 02:15:22;;;;;;;5.77;3.63;;;12.10;99.90;;;;;;4960897;28;21097;-90
2021/09/29 02:17:49;;;;;;;6.43;3.30;;;12.00;99.90;;;;;;4962785;28;20227;-91
2021/09/29 02:20:14;;;;;;;5.73;5.00;;;12.00;99.90;;;;;;4979055;28;20325;-92
2021/09/29 02:22:41;;;;;;;6.40;3.60;;;12.00;99.90;;;;;;4996155;28;20670;-90
2021/09/29 02:25:09;;;;;;;6.93;3.83;;;12.00;99.90;;;;;;4979400;28;20254;-91
2021/09/29 02:27:34;;;;;;;6.60;4.00;;;12.00;99.90;;;;;;4978160;28;20278;-92
2021/09/29 02:30:01;;;;;;;9.30;3.50;;;12.00;99.90;;;;;;4980560;28;20241;-92
2021/09/29 02:32:26;;;;;;;4.33;2.63;;;12.00;99.90;;;;;;4994726;28;20215;-92
2021/09/29 02:34:52;;;;;;;4.80;4.10;;;12.00;99.90;;;;;;4995628;28;20227;-92
2021/09/29 02:37:18;;;;;;;6.07;3.40;;;12.00;99.90;;;;;;4979027;28;20223;-91
2021/09/29 02:39:44;;;;;;;3.00;2.30;;;12.00;99.90;;;;;;4948022;28;20199;-93
2021/09/29 02:42:11;;;;;;;6.83;4.47;;;12.00;99.90;;;;;;4964449;28;20250;-93
2021/09/29 02:44:37;;;;;;;6.50;3.70;;;11.90;99.90;;;;;;4961441;28;20223;-93
2021/09/29 02:47:03;;;;;;;5.67;3.60;;;11.90;99.90;;;;;;4963193;28;20645;-93
2021/09/29 02:49:28;;;;;;;4.47;4.07;;;11.80;99.90;;;;;;4962364;28;20226;-92
2021/09/29 02:51:54;;;;;;;7.07;3.27;;;11.80;99.90;;;;;;4945196;28;20188;-92
2021/09/29 02:54:20;;;;;;;3.87;3.50;;;11.80;99.90;;;;;;4978128;28;20302;-94
2021/09/29 02:56:46;;;;;;;4.30;3.27;;;11.80;99.90;;;;;;4961993;28;20232;-91
2021/09/29 02:59:12;;;;;;;5.53;3.17;;;11.80;99.90;;;;;;4960977;28;21136;-93
2021/09/29 03:01:42;;;;;;;7.93;2.80;;;11.80;99.90;;;;;;4963886;28;20226;-93
2021/09/29 03:04:08;;;;;;;6.20;2.90;;;11.80;99.90;;;;;;4986260;28;21075;-92
2021/09/29 03:06:34;;;;;;;6.60;3.80;;;11.80;99.90;;;;;;4945757;28;20680;-91
2021/09/29 03:09:00;;;;;;;6.23;3.53;;;11.80;99.90;;;;;;4961682;28;20212;-92
2021/09/29 03:11:26;;;;;;;3.83;2.63;;;11.80;99.90;;;;;;4974995;28;20728;-92
2021/09/29 03:13:52;;;;;;;3.83;3.07;;;11.90;99.90;;;;;;4950596;28;20232;-94
2021/09/29 03:16:18;;;;;;;3.43;3.03;;;11.90;99.90;;;;;;4981284;28;20195;-92
2021/09/29 03:18:44;;;;;;;6.73;3.40;;;11.90;99.90;;;;;;4966382;28;20200;-92
2021/09/29 03:21:10;;;;;;;6.17;4.03;;;11.90;99.90;;;;;;4964568;28;20219;-93
2021/09/29 03:23:36;;;;;;;5.57;3.03;;;11.90;99.90;;;;;;4965314;28;20327;-92
2021/09/29 03:26:02;;;;;;;4.83;2.53;;;11.90;99.90;;;;;;4966347;28;20231;-92
2021/09/29 03:28:28;;;;;;;5.57;2.63;;;11.90;99.90;;;;;;4996958;28;20337;-92
2021/09/29 03:30:54;;;;;;;4.30;2.90;;;12.00;99.90;;;;;;4977793;28;21279;-93
2021/09/29 03:33:20;;;;;;;4.37;3.30;;;12.00;99.90;;;;;;4959834;28;20700;-91
2021/09/29 03:35:46;;;;;;;6.17;2.53;;;12.00;99.90;;;;;;4979425;28;20312;-92
2021/09/29 03:38:12;;;;;;;2.83;2.43;;;12.00;99.90;;;;;;4963157;28;20756;-91
2021/09/29 03:40:38;;;;;;;2.87;2.50;;;12.00;99.90;;;;;;4962033;28;20244;-91
2021/09/29 03:43:04;;;;;;;6.13;2.77;;;12.10;99.90;;;;;;4977907;28;20196;-92
2021/09/29 03:45:30;;;;;;;3.77;2.90;;;12.10;99.90;;;;;;4962337;28;20240;-93
2021/09/29 03:47:56;;;;;;;5.63;3.37;;;12.10;99.90;;;;;;4959904;28;21041;-93
2021/09/29 03:50:22;;;;;;;4.27;2.93;;;12.10;99.90;;;;;;4961913;28;20259;-91
2021/09/29 03:52:48;;;;;;;2.93;2.43;;;12.10;99.90;;;;;;4993300;28;20227;-93
2021/09/29 03:55:14;;;;;;;4.60;3.47;;;12.10;99.90;;;;;;4963834;28;20207;-90
2021/09/29 03:57:40;;;;;;;2.67;2.40;;;12.00;99.90;;;;;;4976275;28;20208;-92
2021/09/29 04:00:09;;;;;;;5.67;2.77;;;12.00;99.90;;;;;;4971265;28;20732;-92
2021/09/29 04:02:35;;;;;;;2.83;2.17;;;12.00;99.90;;;;;;4940222;28;20235;-92
2021/09/29 04:05:01;;;;;;;21.30;4.20;;;12.00;99.90;;;;;;4970955;28;20250;-92
2021/09/29 04:07:27;;;;;;;9.73;2.80;;;12.00;99.90;;;;;;4957185;28;20685;-93
2021/09/29 04:09:53;;;;;;;8.30;2.63;;;11.90;99.90;;;;;;4944547;28;20261;-91
2021/09/29 04:12:21;;;;;;;5.20;3.33;;;11.90;99.90;;;;;;4942674;28;20674;-92
2021/09/29 04:14:50;;;;;;;3.77;1.90;;;11.80;99.90;;;;;;4977056;28;20279;-90
2021/09/29 04:17:16;;;;;;;5.03;3.13;;;11.80;99.90;;;;;;4975652;28;20259;-91
2021/09/29 04:19:42;;;;;;;4.87;3.23;;;11.90;99.90;;;;;;4962208;28;20360;-92
2021/09/29 04:22:11;;;;;;;5.23;3.33;;;11.90;99.90;;;;;;4962691;28;20189;-89
2021/09/29 04:24:38;;;;;;;5.93;3.00;;;11.90;99.90;;;;;;4977134;28;20192;-92
2021/09/29 04:27:05;;;;;;;5.53;3.40;;;11.90;99.90;;;;;;4978008;28;20312;-92
2021/09/29 04:29:31;;;;;;;5.20;2.67;;;11.90;99.90;;;;;;4975677;28;20244;-92
2021/09/29 04:31:56;;;;;;;5.10;2.20;;;12.00;99.90;;;;;;4945370;28;21050;-91
2021/09/29 04:34:22;;;;;;;5.37;2.30;;;12.00;99.90;;;;;;4960491;28;20223;-93
2021/09/29 04:36:48;;;;;;;5.77;2.77;;;12.00;99.90;;;;;;4962287;28;20866;-91
2021/09/29 04:39:14;;;;;;;4.53;3.30;;;12.00;99.90;;;;;;4961552;28;20221;-92
2021/09/29 04:41:41;;;;;;;3.27;2.50;;;12.10;99.90;;;;;;4977247;28;20212;-91
2021/09/29 04:44:07;;;;;;;13.63;3.20;;;12.10;99.90;;;;;;4978384;28;20335;-89
2021/09/29 04:46:33;;;;;;;7.67;2.80;;;12.10;99.90;;;;;;4962683;28;20685;-92
2021/09/29 04:48:58;;;;;;;4.77;2.70;;;12.10;99.90;;;;;;4945700;28;20207;-92
2021/09/29 04:51:27;;;;;;;3.50;3.20;;;12.10;99.90;;;;;;4977701;28;21200;-91
2021/09/29 04:53:53;;;;;;;5.70;2.57;;;12.10;99.90;;;;;;4978108;28;20227;-92
2021/09/29 04:56:19;;;;;;;3.00;2.50;;;12.10;99.90;;;;;;4963635;28;20224;-93
2021/09/29 04:58:45;;;;;;;2.87;2.13;;;12.10;99.90;;;;;;4946910;28;20570;-92
2021/09/29 05:01:13;;;;;;;4.30;2.37;;;12.10;99.90;;;;;;4976229;28;20270;-92
2021/09/29 05:03:40;;;;;;;6.13;2.43;;;12.20;99.90;;;;;;4963643;28;20645;-93
2021/09/29 05:06:08;;;;;;;6.97;3.27;;;12.20;99.90;;;;;;4978501;28;20212;-92
2021/09/29 05:08:35;;;;;;;3.07;2.60;;;12.10;99.90;;;;;;4969521;28;20780;-93
2021/09/29 05:11:04;;;;;;;14.20;3.43;;;12.20;99.90;;;;;;4961631;28;20225;-88
2021/09/29 05:13:33;;;;;;;5.93;2.80;;;12.20;99.90;;;;;;4954880;28;20251;-88
2021/09/29 05:16:02;;;;;;;3.90;2.60;;;12.20;99.90;;;;;;4960587;28;20228;-89
2021/09/29 05:18:29;;;;;;;2.43;1.90;;;12.10;99.90;;;;;;4961344;28;20224;-91
2021/09/29 05:20:55;;;;;;;7.93;3.80;;;12.10;99.90;;;;;;4961107;28;20224;-89
2021/09/29 05:23:22;;;;;;;4.17;3.10;;;12.10;99.90;;;;;;4977205;28;20231;-90
2021/09/29 05:25:47;;;;;;;10.53;3.37;;;12.10;99.90;;;;;;4980520;28;20220;-90
2021/09/29 05:28:17;;;;;;;4.20;2.53;;;12.10;99.90;;;;;;4979153;28;20214;-90
2021/09/29 05:30:44;;;;;;;4.40;2.37;;;12.00;99.90;;;;;;4991801;28;20238;-90
2021/09/29 05:33:10;;;;;;;4.17;3.17;;;12.00;99.90;;;;;;4961642;28;20223;-93
2021/09/29 05:35:35;;;;;;;3.03;2.43;;;12.00;99.90;;;;;;4959911;28;20545;-91
2021/09/29 05:38:02;;;;;;;8.00;2.47;;;12.00;99.90;;;;;;4974132;28;20670;-89
2021/09/29 05:40:28;;;;;;;2.67;1.97;;;12.10;99.90;;;;;;4977783;28;20666;-91
2021/09/29 05:43:17;;;;;;;5.73;3.10;;;12.10;99.90;;;;;;4943819;28;20222;-94
2021/09/29 05:49:23;;;;;;;4.70;3.50;;;12.20;99.90;;;;;;4894913;28;20261;-89
2021/09/29 05:51:48;;;;;;;4.60;2.57;;;12.30;99.90;;;;;;4940479;28;20194;-90
2021/09/29 05:54:14;;;;;;;4.30;2.33;;;12.30;99.90;;;;;;4969612;28;20223;-87
2021/09/29 05:56:40;;;;;;;4.83;3.00;;;12.40;99.90;;;;;;4959046;28;20216;-87
2021/09/29 05:59:06;;;;;;;4.07;3.17;;;12.40;99.90;;;;;;4961123;28;20537;-89
2021/09/29 06:01:32;;;;;;;7.93;2.70;;;12.50;99.90;;;;;;4967367;28;20228;-83
2021/09/29 06:03:58;;;;;;;4.00;2.50;;;12.50;99.90;;;;;;4958666;28;21110;-84
2021/09/29 06:06:23;;;;;;;5.27;3.10;;;12.50;99.90;;;;;;4941742;28;20302;-84
2021/09/29 06:08:49;;;;;;;5.87;3.20;;;12.60;99.90;;;;;;4937754;28;20236;-84
2021/09/29 06:11:15;;;;;;;4.00;2.00;;;12.60;99.90;;;;;;4945573;28;20220;-82
2021/09/29 06:13:40;;;;;;;2.80;1.93;;;12.60;99.90;;;;;;4955699;28;20216;-82
2021/09/29 06:16:07;;;;;;;3.57;2.17;;;12.70;99.90;;;;;;4975990;28;20208;-82
2021/09/29 06:18:35;;;;;;;5.97;2.67;;;12.70;99.90;;;;;;4941396;28;20223;-84
2021/09/29 06:21:01;;;;;;;3.13;2.77;;;12.70;99.90;;;;;;4958796;28;20260;-85
2021/09/29 06:23:27;;;;;;;5.63;2.30;;;12.70;99.90;;;;;;4957692;28;20678;-88
2021/09/29 06:25:53;;;;;;;5.83;2.30;;;12.60;99.90;;;;;;4944780;28;20232;-91
2021/09/29 06:28:19;;;;;;;7.47;2.33;;;12.50;99.90;;;;;;4991682;28;20201;-84
2021/09/29 06:30:45;;;;;;;2.57;2.13;;;12.50;99.90;;;;;;4973722;28;20327;-84
2021/09/29 06:33:11;;;;;;;3.20;2.40;;;12.50;99.90;;;;;;4941325;28;20748;-85
2021/09/29 06:35:37;;;;;;;3.27;2.43;;;12.50;99.90;;;;;;4972772;28;20322;-82
2021/09/29 06:38:03;;;;;;;3.33;2.87;;;12.40;99.90;;;;;;4939641;28;20239;-82
2021/09/29 06:40:29;;;;;;;3.97;2.23;;;12.40;99.90;;;;;;4974475;28;20228;-83
2021/09/29 06:42:55;;;;;;;3.83;2.53;;;12.40;99.90;;;;;;4960342;28;20673;-88
2021/09/29 06:45:21;;;;;;;2.43;1.80;;;12.40;99.90;;;;;;4960708;28;20265;-93
2021/09/29 06:47:49;;;;;;;2.60;2.40;;;12.40;99.90;;;;;;4960758;28;20228;-91
2021/09/29 06:50:17;;;;;;;6.87;2.37;;;12.50;99.90;;;;;;4964852;28;20246;-88
2021/09/29 06:52:43;;;;;;;3.37;2.10;;;12.50;99.90;;;;;;4961573;28;20232;-90
2021/09/29 06:55:10;;;;;;;4.67;2.70;;;12.50;99.90;;;;;;4981412;28;20195;-89
2021/09/29 06:57:36;;;;;;;1.50;1.27;;;12.50;99.90;;;;;;4980535;28;20207;-95
2021/09/29 07:00:05;;;;;;;4.57;1.93;;;12.60;99.90;;;;;;4982331;28;20346;-87
2021/09/29 07:02:32;;;;;;;5.93;2.23;;;12.60;99.90;;;;;;4981662;28;20728;-89
2021/09/29 07:05:00;;;;;;;3.50;1.97;;;12.60;99.90;;;;;;4978662;28;20248;-88
2021/09/29 07:07:26;;;;;;;3.63;2.07;;;12.60;99.90;;;;;;4979727;28;20188;-88
2021/09/29 07:09:52;;;;;;;5.20;2.47;;;12.60;99.90;;;;;;4956397;28;20239;-88
2021/09/29 07:12:17;;;;;;;5.37;3.03;;;12.60;99.90;;;;;;4962634;28;21111;-89
2021/09/29 07:14:43;;;;;;;2.07;1.83;;;12.60;99.90;;;;;;4945997;28;20315;-86
2021/09/29 07:17:09;;;;;;;4.70;1.87;;;12.60;99.90;;;;;;4945655;28;20335;-88
2021/09/29 07:19:35;;;;;;;5.07;2.47;;;12.60;99.90;;;;;;4952587;28;20282;-88
2021/09/29 07:22:00;;;;;;;5.60;2.33;;;12.60;99.90;;;;;;4989274;28;20195;-90
2021/09/29 07:24:26;;;;;;;6.70;2.47;;;12.70;99.90;;;;;;4934315;28;20216;-88
2021/09/29 07:26:52;;;;;;;4.20;2.93;;;12.60;99.90;;;;;;4972707;28;20239;-89
2021/09/29 07:29:19;;;;;;;10.03;3.13;;;12.70;99.90;;;;;;4965279;28;20966;-88
2021/09/29 07:31:46;;;;;;;4.03;2.60;;;12.70;99.90;;;;;;4960738;28;20670;-87
2021/09/29 07:34:12;;;;;;;2.77;2.57;;;12.70;99.90;;;;;;4979781;28;20665;-89
2021/09/29 07:36:38;;;;;;;3.30;2.20;;;12.70;99.90;;;;;;4975835;28;20200;-90
2021/09/29 07:39:06;;;;;;;4.63;2.20;;;12.70;99.90;;;;;;4960414;28;20243;-88
2021/09/29 07:41:32;;;;;;;4.67;3.90;;;12.80;99.90;;;;;;5007614;28;20274;-90
2021/09/29 07:43:58;;;;;;;3.93;2.70;;;12.70;99.90;;;;;;4957960;28;20303;-88
2021/09/29 07:46:24;;;;;;;6.53;3.60;;;12.80;99.90;;;;;;4977898;28;20209;-90
2021/09/29 07:48:50;;;;;;;7.30;2.10;;;12.80;99.90;;;;;;4961815;28;21087;-89
2021/09/29 07:51:16;;;;;;;7.07;2.50;;;12.70;99.90;;;;;;4960581;28;20694;-87
2021/09/29 07:53:42;;;;;;;2.50;1.50;;;12.70;99.90;;;;;;4943395;28;20225;-88
2021/09/29 07:56:08;;;;;;;5.87;2.77;;;12.70;99.90;;;;;;4979589;28;20228;-88
2021/09/29 07:58:35;;;;;;;2.97;2.70;;;12.70;99.90;;;;;;4977344;28;20229;-88
2021/09/29 08:01:01;;;;;;;3.13;2.27;;;12.70;99.90;;;;;;4970718;28;20215;-86
2021/09/29 08:03:27;;;;;;;4.07;2.60;;;12.70;99.90;;;;;;4960140;28;20676;-88
2021/09/29 08:05:57;;;;;;;4.13;1.70;;;12.70;99.90;;;;;;4977951;28;20224;-90
2021/09/29 08:08:22;;;;;;;7.00;3.80;;;12.70;99.90;;;;;;4978173;28;20227;-87
2021/09/29 08:10:48;;;;;;;3.00;2.13;;;12.70;99.90;;;;;;4977012;28;20588;-88
2021/09/29 08:13:14;;;;;;;3.57;1.87;;;12.70;99.90;;;;;;4976957;28;20191;-87
2021/09/29 08:15:40;;;;;;;4.10;2.70;;;12.80;99.90;;;;;;4975746;28;20296;-87
2021/09/29 08:18:06;;;;;;;3.53;3.13;;;12.80;99.90;;;;;;4961803;28;20232;-86
2021/09/29 08:20:34;;;;;;;8.33;3.20;;;12.90;99.90;;;;;;4959607;28;20232;-87
2021/09/29 08:28:48;;;;;;;3.57;2.47;;;13.10;99.90;;;;;;4978063;28;20235;-89
2021/09/29 08:31:23;;;;;;;3.53;2.07;;;13.10;99.90;;;;;;4937540;28;21002;-88
2021/09/29 08:39:07;;;;;;;4.17;3.47;;;13.50;99.90;;;;;;4968324;28;20228;-88
2021/09/29 08:44:29;;;;;;;2.57;2.27;;;13.50;99.90;;;;;;4974518;28;20225;-89
2021/09/29 08:47:04;;;;;;;2.40;2.13;;;13.50;99.90;;;;;;4943070;28;20232;-89
2021/09/29 08:49:47;;;;;;;6.43;2.67;;;13.50;99.90;;;;;;4966734;28;20228;-86
2021/09/29 09:16:40;;;;;;;2.10;0.60;;;13.40;99.90;;;;;;4965469;28;20315;-86
2021/09/29 09:19:12;;;;;;;1.13;0.70;;;13.40;99.90;;;;;;4943943;28;21102;-87
2021/09/29 09:21:55;;;;;;;0.90;0.67;;;13.30;99.90;;;;;;4966060;28;20225;-87
2021/09/29 09:24:23;;;;;;;0.60;0.47;;;13.20;99.90;;;;;;4965665;28;20239;-88
2021/09/29 09:26:57;;;;;;;0.87;0.67;;;13.10;99.90;;;;;;4965708;28;20276;-88
2021/09/29 09:29:23;;;;;;;1.30;0.93;;;13.10;99.90;;;;;;4972619;28;20247;-87
2021/09/29 09:31:49;;;;;;;1.73;0.60;;;13.10;99.90;;;;;;4947813;28;20242;-88
2021/09/29 09:34:15;;;;;;;1.40;0.80;;;13.10;99.90;;;;;;4978495;28;20240;-86
2021/09/29 09:36:50;;;;;;;0.40;0.40;;;13.20;99.90;;;;;;4947308;28;20645;-87
2021/09/29 09:39:21;;;;;;;0.40;0.40;;;13.10;99.90;;;;;;4985897;28;20227;-87
2021/09/29 09:41:50;;;;;;;0.67;0.63;;;13.30;99.90;;;;;;4976685;28;21031;-86
2021/09/29 09:44:34;;;;;;;1.93;0.70;;;13.40;99.90;;;;;;4978478;28;20235;-86
2021/09/29 09:47:08;;;;;;;1.00;0.60;;;13.50;99.90;;;;;;4995399;28;20226;-85
2021/09/29 09:49:44;;;;;;;0.53;0.53;;;13.70;99.90;;;;;;4978092;28;20261;-87
2021/09/29 09:52:09;;;;;;;0.77;0.50;;;13.70;99.90;;;;;;4960910;28;20668;-87
2021/09/29 09:54:38;;;;;;;2.23;1.00;;;13.80;99.90;;;;;;4960760;28;20267;-87
2021/09/29 09:57:19;;;;;;;0.93;0.80;;;13.80;99.90;;;;;;4976586;28;20235;-86
2021/09/29 09:59:49;;;;;;;1.50;1.40;;;13.90;99.90;;;;;;4993644;28;20317;-86
2021/09/29 10:02:16;;;;;;;0.97;0.90;;;14.00;99.90;;;;;;4977681;28;20409;-87
2021/09/29 10:04:43;;;;;;;2.10;1.37;;;14.00;99.90;;;;;;4994175;28;20218;-87
2021/09/29 10:07:09;;;;;;;1.47;1.17;;;14.00;99.90;;;;;;4946721;28;20251;-87
2021/09/29 10:09:43;;;;;;;1.87;1.50;;;14.00;99.90;;;;;;4960617;28;20674;-85
2021/09/29 10:12:23;;;;;;;1.20;1.10;;;13.90;99.90;;;;;;4977640;28;20262;-87
2021/09/29 10:22:52;;;;;;;1.77;0.90;;;13.80;99.90;;;;;;4996103;28;20638;-84
2021/09/29 10:26:14;;;;;;;0.67;0.43;;;13.80;99.90;;;;;;4977609;28;20696;-86
2021/09/29 10:28:42;;;;;;;1.70;0.80;;;13.80;99.90;;;;;;4976196;28;20248;-85
2021/09/29 10:33:42;;;;;;;1.50;0.90;;;13.90;99.90;;;;;;4994446;28;20219;-85
2021/09/29 10:42:01;;;;;;;2.07;1.17;;;13.90;99.90;;;;;;4994902;28;20694;-86
2021/09/29 10:47:49;;;;;;;0.90;0.73;;;14.00;99.90;;;;;;4978965;28;20267;-88
2021/09/29 11:30:32;;;;;;;4.17;0.70;;;12.50;99.90;;;;;;4993216;28;20231;-84
2021/09/29 11:33:08;;;;;;;0.30;0.30;;;12.50;99.90;;;;;;4975855;28;20346;-86
2021/09/29 11:35:54;;;;;;;0.50;0.50;;;12.50;99.90;;;;;;4963605;28;20281;-86
2021/09/29 11:38:37;;;;;;;2.47;0.50;;;12.70;99.90;;;;;;4977618;28;20228;-82
2021/09/29 12:08:48;;;;;;;2.20;0.20;;;12.80;99.90;;;;;;4966852;28;20220;-86
2021/09/29 12:11:44;;;;;;;10.10;0.83;;;12.90;99.90;;;;;;4980806;28;20294;-84
2021/09/29 12:14:18;;;;;;;2.23;0.20;;;12.90;99.90;;;;;;4973837;28;20821;-87
2021/09/29 12:16:47;;;;;;;2.23;0.30;;;12.90;99.90;;;;;;4979110;28;20227;-83
2021/09/29 12:19:23;;;;;;;2.00;0.50;;;12.90;99.90;;;;;;4979962;28;20196;-84
2021/09/29 12:21:51;;;;;;;0.97;0.37;;;12.90;99.90;;;;;;4979783;28;20184;-86
2021/09/29 12:24:44;;;;;;;2.47;0.77;;;12.90;99.90;;;;;;4949719;28;20220;-85
2021/09/29 12:27:51;;;;;;;5.30;0.50;;;13.00;99.90;;;;;;4979301;28;20223;-85
2021/09/29 12:30:43;;;;;;;1.13;0.57;;;13.20;99.90;;;;;;4979389;28;20235;-85
2021/09/29 12:33:19;;;;;;;7.50;0.70;;;13.30;99.90;;;;;;4982032;28;20219;-84
2021/09/29 12:35:50;;;;;;;0.50;0.47;;;13.50;99.90;;;;;;4979656;28;20235;-84
2021/09/29 12:38:17;;;;;;;10.63;0.73;;;13.60;99.90;;;;;;4962456;28;20254;-83
2021/09/29 12:40:44;;;;;;;2.97;0.30;;;13.70;99.90;;;;;;4962904;28;20303;-84
2021/09/29 12:43:22;;;;;;;0.87;0.60;;;13.90;99.90;;;;;;4971114;28;20665;-84
2021/09/29 12:45:50;;;;;;;2.07;0.70;;;13.90;99.90;;;;;;4978411;28;20649;-85
2021/09/29 12:48:20;;;;;;;8.43;2.00;;;14.00;99.90;;;;;;4977603;28;20271;-84
2021/09/29 12:50:59;;;;;;;5.07;0.90;;;14.20;99.90;;;;;;4979633;28;20223;-87
2021/09/29 12:56:39;;;;;;;0.60;0.47;;;14.10;99.90;;;;;;4993454;28;20215;-85
2021/09/29 12:58:46;;;;;;;1.40;0.67;;;14.20;99.90;;;;;;4982553;28;20242;-84
2021/09/29 13:01:12;;;;;;;2.53;0.77;;;14.20;99.90;;;;;;4961968;28;20188;-83
2021/09/29 13:03:38;;;;;;;0.60;0.40;;;14.30;99.90;;;;;;4979644;28;20188;-84
2021/09/29 13:06:05;;;;;;;2.33;0.53;;;14.00;99.90;;;;;;4961582;28;20301;-83
2021/09/29 13:08:31;;;;;;;1.90;0.40;;;14.00;99.90;;;;;;4961207;28;20589;-83
2021/09/29 13:10:58;;;;;;;0.30;0.20;;;13.90;99.90;;;;;;4952979;28;20778;-85
2021/09/29 13:13:25;;;;;;;1.27;0.57;;;13.50;99.90;;;;;;4957660;28;20299;-85
2021/09/29 13:15:53;;;;;;;0.40;0.40;;;13.20;99.90;;;;;;4976021;28;20327;-84
2021/09/29 13:18:29;;;;;;;0.90;0.60;;;12.90;99.90;;;;;;4960790;28;20226;-84
2021/09/29 13:20:59;;;;;;;4.70;0.53;;;12.60;99.90;;;;;;4960513;28;20237;-84
2021/09/29 13:23:32;;;;;;;1.33;0.37;;;12.30;99.90;;;;;;4974277;28;20416;-85
2021/09/29 13:27:06;;;;;;;0.40;0.30;;;12.10;99.90;;;;;;4947142;28;20204;-84
2021/09/29 13:37:07;;;;;;;0.50;0.50;;;11.70;99.90;;;;;;4978290;28;20246;-81
2021/09/29 13:39:33;;;;;;;3.33;0.40;;;11.80;99.90;;;;;;4953500;28;20195;-82
2021/09/29 13:41:58;;;;;;;0.20;0.20;;;11.80;99.90;;;;;;4945062;28;20219;-83
2021/09/29 13:44:26;;;;;;;1.77;0.63;;;11.80;99.90;;;;;;4973378;28;20227;-84
2021/09/29 13:46:52;;;;;;;0.67;0.40;;;11.70;99.90;;;;;;4956186;28;20230;-85
2021/09/29 13:49:20;;;;;;;0.20;0.20;;;11.70;99.90;;;;;;4985362;28;20192;-87
2021/09/29 13:51:47;;;;;;;0.13;0.13;;;11.70;99.90;;;;;;4961853;28;20566;-85
2021/09/29 13:54:31;;;;;;;4.43;0.60;;;11.70;99.90;;;;;;4974376;28;20216;-83
2021/09/29 13:57:11;;;;;;;0.07;0.07;;;11.60;99.90;;;;;;4944720;28;20224;-86
2021/09/29 14:29:28;;;;;;;2.87;0.40;;;11.60;99.90;;;;;;4967272;28;20246;-87
2021/09/29 14:34:23;;;;;;;0.10;0.10;;;11.80;99.90;;;;;;4978190;28;20199;-87
2021/09/29 14:36:49;;;;;;;2.13;0.50;;;11.70;99.90;;;;;;4994910;28;20282;-86
2021/09/29 14:39:15;;;;;;;4.13;0.10;;;11.50;99.90;;;;;;4962235;28;20219;-84
2021/09/29 14:41:42;;;;;;;0.10;0.10;;;11.40;99.90;;;;;;4962680;28;20215;-87
2021/09/29 14:44:08;;;;;;;0.10;0.10;;;11.20;99.90;;;;;;4978360;28;20223;-86
2021/09/29 14:46:35;;;;;;;0.20;0.20;;;11.20;99.90;;;;;;4977709;28;20710;-86
2021/09/29 14:49:01;;;;;;;0.40;0.40;;;11.10;99.90;;;;;;4979268;28;20550;-88
2021/09/29 14:51:27;;;;;;;0.47;0.30;;;11.00;99.90;;;;;;4987292;28;20688;-88
2021/09/29 14:53:56;;;;;;;3.13;0.27;;;11.00;99.90;;;;;;4960399;28;20219;-85
2021/09/29 14:56:22;;;;;;;0.20;0.20;;;11.00;99.90;;;;;;4944630;28;20246;-84
2021/09/29 14:58:48;;;;;;;4.70;0.53;;;11.10;99.90;;;;;;4977067;28;20246;-86
2021/09/29 15:01:15;;;;;;;2.17;0.60;;;11.10;99.90;;;;;;4959483;28;20266;-88
2021/09/29 15:03:42;;;;;;;1.73;0.80;;;11.20;99.90;;;;;;4970293;28;20198;-87
2021/09/29 15:06:08;;;;;;;0.87;0.30;;;11.30;99.90;;;;;;4972246;28;20215;-86
2021/09/29 15:08:39;;;;;;;0.10;0.10;;;11.40;99.90;;;;;;4957441;28;20234;-87
2021/09/29 15:11:05;;;;;;;6.17;1.57;;;11.30;99.90;;;;;;4980207;28;20227;-86
2021/09/29 15:13:36;;;;;;;2.93;0.43;;;11.40;99.90;;;;;;4980127;28;20231;-89
2021/09/29 15:16:06;;;;;;;0.20;0.20;;;11.30;99.90;;;;;;4949466;28;20192;-87
2021/09/29 15:21:26;;;;;;;0.60;0.60;;;11.20;99.90;;;;;;4998432;28;20754;-86
2021/09/29 15:48:11;;;;;;;0.20;0.20;;;11.50;99.90;;;;;;4972205;28;20228;-84
2021/09/29 15:50:48;;;;;;;5.07;0.63;;;11.50;99.90;;;;;;4980110;28;20228;-87
2021/09/29 15:56:01;;;;;;;0.10;0.10;;;11.50;99.90;;;;;;4980461;28;20249;-89
2021/09/29 16:08:50;;;;;;;1.20;1.03;;;11.70;99.90;;;;;;4992519;28;20747;-85
2021/09/29 16:30:22;;;;;;;1.73;1.37;;;11.70;99.90;;;;;;4996381;28;20235;-84
2021/09/29 16:37:48;;;;;;;8.43;0.73;;;11.70;99.90;;;;;;4995772;28;20234;-85
2021/09/29 16:40:15;;;;;;;0.27;0.27;;;11.70;99.90;;;;;;4961124;28;20194;-83
2021/09/29 16:42:41;;;;;;;0.87;0.63;;;11.70;99.90;;;;;;4979771;28;20180;-88
2021/09/29 16:45:10;;;;;;;0.20;0.20;;;11.70;99.90;;;;;;4947492;28;21108;-87
2021/09/29 16:47:37;;;;;;;1.07;0.30;;;11.70;99.90;;;;;;4972500;28;20219;-84
2021/09/29 16:50:04;;;;;;;0.33;0.27;;;11.70;99.90;;;;;;4977687;28;20278;-85